Time;durP1;ratioP1;P1;durP2;ratioP2;P2;SDS_P1;SDS_P2;PMS_P1;PMS_P2;Temp;Humidity;BMP_temperature;BMP_pressure;BME280_temperature;BME280_humidity;BME280_pressure;Samples;Min_cycle;Max_cycle;Signal;HPM_P1;HPM_P2
2022/11/15 00:00:07;;;;;;;8.03;6.43;;;10.70;99.90;;;;;;5073020;28;20188;-81
2022/11/15 00:02:33;;;;;;;7.27;6.40;;;10.70;99.90;;;;;;5056360;28;20176;-80
2022/11/15 00:04:58;;;;;;;8.43;6.50;;;10.70;99.90;;;;;;5055933;28;20431;-80
2022/11/15 00:07:24;;;;;;;8.73;6.10;;;10.70;99.90;;;;;;5072624;28;20218;-80
2022/11/15 00:09:49;;;;;;;7.03;5.20;;;10.70;99.90;;;;;;5072533;28;20319;-81
2022/11/15 00:12:15;;;;;;;10.83;6.27;;;10.70;99.90;;;;;;5072397;28;20195;-80
2022/11/15 00:14:41;;;;;;;7.10;6.07;;;10.80;99.90;;;;;;5072909;28;20184;-80
2022/11/15 00:17:06;;;;;;;8.37;6.20;;;10.80;99.90;;;;;;5055381;28;20534;-80
2022/11/15 00:19:33;;;;;;;7.83;6.40;;;10.90;99.90;;;;;;5072797;28;20180;-80
2022/11/15 00:21:58;;;;;;;6.40;5.80;;;10.90;99.90;;;;;;5072890;28;20177;-80
2022/11/15 00:24:24;;;;;;;9.03;5.90;;;10.90;99.90;;;;;;5072581;28;20421;-81
2022/11/15 00:26:49;;;;;;;6.57;5.97;;;10.90;99.90;;;;;;5055972;28;20184;-81
2022/11/15 00:29:15;;;;;;;6.53;5.93;;;10.90;99.90;;;;;;5055426;28;20318;-80
2022/11/15 00:31:40;;;;;;;6.10;5.50;;;10.90;99.90;;;;;;5059408;28;20525;-80
2022/11/15 00:34:06;;;;;;;8.33;5.40;;;10.90;99.90;;;;;;5059663;28;20208;-81
2022/11/15 00:36:35;;;;;;;5.73;5.10;;;10.90;99.90;;;;;;5076678;28;20185;-80
2022/11/15 00:39:00;;;;;;;6.40;5.80;;;11.00;99.90;;;;;;5059547;28;20189;-80
2022/11/15 00:41:26;;;;;;;16.40;4.43;;;11.00;99.90;;;;;;5075834;28;20440;-81
2022/11/15 00:43:51;;;;;;;5.90;4.97;;;11.10;99.90;;;;;;5059483;28;20633;-80
2022/11/15 00:46:17;;;;;;;5.83;4.00;;;11.10;99.90;;;;;;5076086;28;20260;-80
2022/11/15 00:48:43;;;;;;;5.87;4.67;;;11.20;99.90;;;;;;5076289;28;20239;-80
2022/11/15 00:51:08;;;;;;;6.83;5.43;;;11.20;99.90;;;;;;5076840;28;20586;-80
2022/11/15 00:53:34;;;;;;;8.10;5.00;;;11.20;99.90;;;;;;5059328;28;20185;-80
2022/11/15 00:56:00;;;;;;;6.57;4.80;;;11.20;99.90;;;;;;5076181;28;20276;-80
2022/11/15 00:58:25;;;;;;;5.33;4.47;;;11.20;99.90;;;;;;5059527;28;20625;-80
2022/11/15 01:00:51;;;;;;;7.03;5.60;;;11.20;99.90;;;;;;5059622;28;20208;-80
2022/11/15 01:03:16;;;;;;;6.73;5.63;;;11.20;99.90;;;;;;5075903;28;20176;-80
2022/11/15 01:05:42;;;;;;;9.80;5.33;;;11.20;99.90;;;;;;5075978;28;20188;-80
2022/11/15 01:08:13;;;;;;;5.03;4.53;;;11.20;99.90;;;;;;5058642;28;20323;-80
2022/11/15 01:10:39;;;;;;;8.03;4.57;;;11.20;99.90;;;;;;5075648;28;20544;-80
2022/11/15 01:13:04;;;;;;;5.70;4.53;;;11.20;99.90;;;;;;5076682;28;20418;-81
2022/11/15 01:15:30;;;;;;;5.60;4.83;;;11.20;99.90;;;;;;5058665;28;20181;-80
2022/11/15 01:17:55;;;;;;;7.67;5.87;;;11.20;99.90;;;;;;5075403;28;20200;-80
2022/11/15 01:20:21;;;;;;;7.30;5.50;;;11.20;99.90;;;;;;5075546;28;20271;-80
2022/11/15 01:22:46;;;;;;;8.90;6.57;;;11.20;99.90;;;;;;5058907;28;20280;-80
2022/11/15 01:25:12;;;;;;;7.90;6.50;;;11.20;99.90;;;;;;5058755;28;20176;-80
2022/11/15 01:27:38;;;;;;;5.17;4.67;;;11.20;99.90;;;;;;5058822;28;20642;-80
2022/11/15 01:30:04;;;;;;;8.53;5.83;;;11.20;99.90;;;;;;5075773;28;20240;-80
2022/11/15 01:32:30;;;;;;;5.47;4.97;;;11.30;99.90;;;;;;5074957;28;20181;-80
2022/11/15 01:34:55;;;;;;;8.60;6.43;;;11.30;99.90;;;;;;5076439;28;20832;-80
2022/11/15 01:37:21;;;;;;;7.87;5.37;;;11.40;99.90;;;;;;5075063;28;20191;-80
2022/11/15 01:39:46;;;;;;;7.13;5.10;;;11.40;99.90;;;;;;5074973;28;20189;-80
2022/11/15 01:42:13;;;;;;;7.30;5.60;;;11.50;99.90;;;;;;5057532;28;20268;-80
2022/11/15 01:44:50;;;;;;;8.63;5.37;;;11.50;99.90;;;;;;5074856;28;20187;-80
2022/11/15 01:47:19;;;;;;;5.97;4.87;;;11.50;99.90;;;;;;5076348;28;20414;-80
2022/11/15 01:50:14;;;;;;;7.63;4.47;;;11.40;99.90;;;;;;5075100;28;20604;-80
2022/11/15 01:52:40;;;;;;;5.20;4.70;;;11.50;99.90;;;;;;5074056;28;20515;-80
2022/11/15 01:55:25;;;;;;;6.40;4.73;;;11.50;99.90;;;;;;5058389;28;20422;-80
2022/11/15 01:57:56;;;;;;;7.63;5.53;;;11.50;99.90;;;;;;5076265;28;20407;-80
2022/11/15 02:00:22;;;;;;;5.80;5.20;;;11.50;99.90;;;;;;5075975;28;20406;-80
2022/11/15 02:02:47;;;;;;;8.77;5.97;;;11.50;99.90;;;;;;5058255;28;21021;-80
2022/11/15 02:05:13;;;;;;;5.40;4.90;;;11.60;99.90;;;;;;5074678;28;20506;-81
2022/11/15 02:07:39;;;;;;;9.97;6.10;;;11.60;99.90;;;;;;5075825;28;20181;-80
2022/11/15 02:10:16;;;;;;;7.47;5.80;;;11.60;99.90;;;;;;5075928;28;20332;-80
2022/11/15 02:12:42;;;;;;;8.27;5.53;;;11.60;99.90;;;;;;5074880;28;20417;-80
2022/11/15 02:15:10;;;;;;;7.73;6.63;;;11.60;99.90;;;;;;5074625;28;20419;-81
2022/11/15 02:17:50;;;;;;;9.90;6.33;;;11.60;99.90;;;;;;5074988;28;20266;-80
2022/11/15 02:21:07;;;;;;;8.97;5.87;;;11.60;99.90;;;;;;5074402;28;20502;-80
2022/11/15 02:23:41;;;;;;;7.77;5.53;;;11.60;99.90;;;;;;5056228;28;20458;-80
2022/11/15 02:26:15;;;;;;;7.43;6.20;;;11.70;99.90;;;;;;5074946;28;20520;-80
2022/11/15 02:29:10;;;;;;;6.43;5.53;;;11.70;99.90;;;;;;5074914;28;20604;-80
2022/11/15 02:32:09;;;;;;;8.30;5.90;;;11.70;99.90;;;;;;5076281;28;20391;-80
2022/11/15 02:34:53;;;;;;;8.73;5.13;;;11.70;99.90;;;;;;5074242;28;20510;-80
2022/11/15 02:37:34;;;;;;;7.60;5.50;;;11.70;99.90;;;;;;5075379;28;20932;-80
2022/11/15 02:40:13;;;;;;;5.50;4.80;;;11.70;99.90;;;;;;5074010;28;20469;-80
2022/11/15 02:45:40;;;;;;;5.70;4.70;;;11.80;99.90;;;;;;5074652;28;20832;-80
2022/11/15 02:48:07;;;;;;;6.33;5.73;;;11.80;99.90;;;;;;5073925;28;20461;-80
2022/11/15 02:50:33;;;;;;;6.57;4.90;;;11.80;99.90;;;;;;5056793;28;20533;-80
2022/11/15 02:52:58;;;;;;;6.47;4.27;;;11.80;99.90;;;;;;5072822;28;20454;-80
2022/11/15 02:55:30;;;;;;;5.30;4.80;;;11.90;99.90;;;;;;5057148;28;20923;-80
2022/11/15 02:58:40;;;;;;;6.43;4.80;;;11.90;99.90;;;;;;5073733;28;20194;-80
2022/11/15 03:01:30;;;;;;;6.23;4.10;;;11.90;99.90;;;;;;5055846;28;20454;-80
2022/11/15 03:04:20;;;;;;;7.50;4.43;;;12.00;99.90;;;;;;5073210;28;20919;-80
2022/11/15 03:06:52;;;;;;;5.00;4.50;;;12.00;99.90;;;;;;5074987;28;20746;-80
2022/11/15 03:09:54;;;;;;;5.40;4.27;;;12.00;99.90;;;;;;5072707;28;20522;-80
2022/11/15 03:12:42;;;;;;;4.20;3.80;;;12.00;99.90;;;;;;5069091;28;20813;-80
2022/11/15 03:15:31;;;;;;;9.10;3.50;;;12.00;99.90;;;;;;5074450;28;20418;-80
2022/11/15 03:18:06;;;;;;;3.63;3.20;;;12.10;99.90;;;;;;5073504;28;20416;-80
2022/11/15 03:20:33;;;;;;;4.77;4.03;;;12.10;99.90;;;;;;5073630;28;20419;-80
2022/11/15 03:23:09;;;;;;;6.63;3.40;;;12.10;99.90;;;;;;5072971;28;20427;-80
2022/11/15 03:25:40;;;;;;;4.30;3.87;;;12.20;99.90;;;;;;5074299;28;20391;-80
2022/11/15 03:28:09;;;;;;;4.27;3.50;;;12.20;99.90;;;;;;5074276;28;20410;-80
2022/11/15 03:30:38;;;;;;;5.60;3.77;;;12.10;99.90;;;;;;5072486;28;20450;-80
2022/11/15 03:33:04;;;;;;;5.03;3.67;;;12.20;99.90;;;;;;5073314;28;20427;-80
2022/11/15 03:35:42;;;;;;;6.63;4.60;;;12.20;99.90;;;;;;5074297;28;20407;-81
2022/11/15 03:38:21;;;;;;;3.67;3.37;;;12.20;99.90;;;;;;5074501;28;20417;-80
2022/11/15 03:41:11;;;;;;;3.87;3.47;;;12.30;99.90;;;;;;5073218;28;20422;-81
2022/11/15 03:43:52;;;;;;;5.53;4.23;;;12.30;99.90;;;;;;5072712;28;20504;-80
2022/11/15 03:46:35;;;;;;;5.30;3.80;;;12.30;99.90;;;;;;5074272;28;20445;-81
2022/11/15 03:49:09;;;;;;;3.70;3.40;;;12.30;99.90;;;;;;5073793;28;20808;-80
2022/11/15 03:51:35;;;;;;;3.20;2.90;;;12.20;99.90;;;;;;5072151;28;20423;-81
2022/11/15 03:54:06;;;;;;;3.33;2.90;;;12.20;99.90;;;;;;5072731;28;20425;-80
2022/11/15 03:56:31;;;;;;;3.63;3.33;;;12.30;99.90;;;;;;5071972;28;20411;-80
2022/11/15 03:58:57;;;;;;;3.47;3.17;;;12.30;99.90;;;;;;5072679;28;20431;-81
2022/11/15 04:01:23;;;;;;;3.90;3.00;;;12.30;99.90;;;;;;5055725;28;20776;-80
2022/11/15 04:03:48;;;;;;;3.97;2.77;;;12.30;99.90;;;;;;5072641;28;20294;-80
2022/11/15 04:06:14;;;;;;;4.10;3.00;;;12.30;99.90;;;;;;5056203;28;20510;-80
2022/11/15 04:08:40;;;;;;;3.00;2.70;;;12.30;99.90;;;;;;5072929;28;20228;-80
2022/11/15 04:11:05;;;;;;;2.80;2.50;;;12.30;99.90;;;;;;5072757;28;20173;-80
2022/11/15 04:13:31;;;;;;;2.80;2.53;;;12.30;99.90;;;;;;5072389;28;20196;-80
2022/11/15 04:15:56;;;;;;;3.07;2.77;;;12.30;99.90;;;;;;5055790;28;20275;-80
2022/11/15 04:18:22;;;;;;;3.33;3.03;;;12.30;99.90;;;;;;5055576;28;20637;-81
2022/11/15 04:26:20;;;;;;;2.43;2.23;;;12.20;99.90;;;;;;5072502;28;20395;-81
2022/11/15 04:31:30;;;;;;;3.00;2.50;;;12.20;99.90;;;;;;5072234;28;20449;-80
2022/11/15 04:33:56;;;;;;;2.90;2.10;;;12.20;99.90;;;;;;5055989;28;20892;-80
2022/11/15 04:39:07;;;;;;;2.90;2.60;;;12.20;99.90;;;;;;5072924;28;20442;-80
2022/11/15 04:41:33;;;;;;;2.73;2.20;;;12.20;99.90;;;;;;5072119;28;20895;-80
2022/11/15 04:43:58;;;;;;;2.03;1.93;;;12.20;99.90;;;;;;5073419;28;20411;-80
2022/11/15 04:46:24;;;;;;;3.17;2.47;;;12.20;99.90;;;;;;5073537;28;20579;-80
2022/11/15 04:48:51;;;;;;;2.60;2.10;;;12.20;99.90;;;;;;5073429;28;20211;-80
2022/11/15 04:51:17;;;;;;;2.63;2.43;;;12.30;99.90;;;;;;5072331;28;20191;-80
2022/11/15 04:53:42;;;;;;;2.87;2.63;;;12.30;99.90;;;;;;5073626;28;20402;-80
2022/11/15 04:56:08;;;;;;;6.63;2.80;;;12.30;99.90;;;;;;5055217;28;20180;-80
2022/11/15 04:58:36;;;;;;;2.67;2.20;;;12.30;99.90;;;;;;5071800;28;20234;-80
2022/11/15 05:01:14;;;;;;;2.50;2.30;;;12.30;99.90;;;;;;5073193;28;20419;-80
2022/11/15 05:06:25;;;;;;;2.23;2.03;;;12.30;99.90;;;;;;5072974;28;20898;-81
2022/11/15 05:08:51;;;;;;;2.77;2.53;;;12.30;99.90;;;;;;5071810;28;20487;-80
2022/11/15 05:11:17;;;;;;;3.13;2.50;;;12.30;99.90;;;;;;5072172;28;20235;-80
2022/11/15 05:13:42;;;;;;;2.03;1.90;;;12.30;99.90;;;;;;5073549;28;20899;-81
2022/11/15 05:16:08;;;;;;;3.67;2.27;;;12.30;99.90;;;;;;5072349;28;20541;-81
2022/11/15 05:18:34;;;;;;;2.40;2.20;;;12.30;99.90;;;;;;5075453;28;20184;-81
2022/11/15 05:21:07;;;;;;;2.43;2.23;;;12.30;99.90;;;;;;5075486;28;20286;-81
2022/11/15 05:23:33;;;;;;;2.07;1.87;;;12.30;99.90;;;;;;5074980;28;20183;-80
2022/11/15 05:26:00;;;;;;;1.97;1.77;;;12.30;99.90;;;;;;5076984;28;20502;-81
2022/11/15 05:28:25;;;;;;;1.80;1.40;;;12.30;99.90;;;;;;5075778;28;20256;-81
2022/11/15 05:30:51;;;;;;;4.17;1.90;;;12.30;99.90;;;;;;5075342;28;20495;-80
2022/11/15 05:33:17;;;;;;;1.60;1.50;;;12.20;99.90;;;;;;5059015;28;20659;-80
2022/11/15 05:35:48;;;;;;;1.73;1.63;;;12.20;99.90;;;;;;5058558;28;20531;-81
2022/11/15 05:38:14;;;;;;;2.03;1.50;;;12.20;99.90;;;;;;5075545;28;20427;-80
2022/11/15 05:40:40;;;;;;;1.60;1.50;;;12.20;99.90;;;;;;5058127;28;20430;-81
2022/11/15 05:43:06;;;;;;;1.40;1.30;;;12.10;99.90;;;;;;5075450;28;20430;-81
2022/11/15 05:45:33;;;;;;;3.67;1.57;;;12.00;99.90;;;;;;5058620;28;20613;-81
2022/11/15 05:48:04;;;;;;;1.70;1.13;;;11.90;99.90;;;;;;5058667;28;20648;-80
2022/11/15 05:50:30;;;;;;;2.83;1.20;;;11.80;99.90;;;;;;5076191;28;20451;-80
2022/11/15 05:52:56;;;;;;;1.33;1.20;;;11.70;99.90;;;;;;5058505;28;20907;-80
2022/11/15 05:55:22;;;;;;;1.43;1.33;;;11.70;99.90;;;;;;5074903;28;20422;-80
2022/11/15 05:57:47;;;;;;;1.50;1.40;;;11.70;99.90;;;;;;5076241;28;20415;-81
2022/11/15 06:00:13;;;;;;;1.37;1.27;;;11.60;99.90;;;;;;5057894;28;20402;-80
2022/11/15 06:02:39;;;;;;;3.50;1.70;;;11.50;99.90;;;;;;5054364;28;20185;-80
2022/11/15 06:05:05;;;;;;;1.60;1.40;;;11.40;99.90;;;;;;5054827;28;20185;-80
2022/11/15 06:07:31;;;;;;;2.63;1.93;;;11.30;99.90;;;;;;5070718;28;20288;-80
2022/11/15 06:09:56;;;;;;;1.93;1.30;;;11.20;99.90;;;;;;5070815;28;20479;-80
2022/11/15 06:12:22;;;;;;;2.30;1.83;;;11.10;99.90;;;;;;5056328;28;20185;-80
2022/11/15 06:14:47;;;;;;;1.70;1.60;;;11.10;99.90;;;;;;5054455;28;20271;-80
2022/11/15 06:17:13;;;;;;;1.60;1.50;;;10.90;99.90;;;;;;5055063;28;20189;-80
2022/11/15 06:19:38;;;;;;;2.17;1.97;;;10.90;99.90;;;;;;5055732;28;20292;-80
2022/11/15 06:22:04;;;;;;;2.20;2.00;;;10.80;99.90;;;;;;5054599;28;20193;-80
2022/11/15 06:24:30;;;;;;;2.07;1.87;;;10.80;99.90;;;;;;5054565;28;20177;-80
2022/11/15 06:26:55;;;;;;;1.83;1.73;;;10.70;99.90;;;;;;5054555;28;20204;-80
2022/11/15 06:29:21;;;;;;;2.80;1.80;;;10.60;99.90;;;;;;5071195;28;20249;-80
2022/11/15 06:31:46;;;;;;;1.80;1.70;;;10.60;99.90;;;;;;5054156;28;20197;-80
2022/11/15 06:34:12;;;;;;;2.37;1.87;;;10.50;99.90;;;;;;5054549;28;20181;-80
2022/11/15 06:36:38;;;;;;;2.93;2.67;;;10.50;99.90;;;;;;5054067;28;20188;-80
2022/11/15 06:39:04;;;;;;;2.30;2.10;;;10.50;99.90;;;;;;5054246;28;20197;-81
2022/11/15 06:41:30;;;;;;;2.10;1.90;;;10.50;99.90;;;;;;5070740;28;20691;-81
2022/11/15 06:43:57;;;;;;;2.20;2.00;;;10.50;99.90;;;;;;5054168;28;20264;-81
2022/11/15 06:46:23;;;;;;;1.70;1.60;;;10.50;99.90;;;;;;5070702;28;20181;-80
2022/11/15 06:48:51;;;;;;;2.20;1.70;;;10.50;99.90;;;;;;5053945;28;20223;-80
2022/11/15 06:51:17;;;;;;;2.00;1.80;;;10.50;99.90;;;;;;5054520;28;20688;-80
2022/11/15 06:53:42;;;;;;;1.93;1.67;;;10.50;99.90;;;;;;5054756;28;20209;-80
2022/11/15 06:56:09;;;;;;;2.50;2.30;;;10.40;99.90;;;;;;5053940;28;20192;-80
2022/11/15 06:58:35;;;;;;;2.00;1.42;;;10.40;99.90;;;;;;5053594;28;20186;-80
2022/11/15 07:01:02;;;;;;;3.00;2.30;;;10.40;99.90;;;;;;5054292;28;20209;-80
2022/11/15 07:03:28;;;;;;;2.28;1.60;;;10.40;99.90;;;;;;5070447;28;20178;-81
2022/11/15 07:05:55;;;;;;;2.20;1.67;;;10.30;99.90;;;;;;5053811;28;20204;-80
2022/11/15 07:08:22;;;;;;;2.70;1.90;;;10.30;99.90;;;;;;5053458;28;20327;-79
2022/11/15 07:10:48;;;;;;;1.40;1.30;;;10.30;99.90;;;;;;5054626;28;20181;-80
2022/11/15 07:13:13;;;;;;;2.03;1.77;;;10.20;99.90;;;;;;5053692;28;20186;-79
2022/11/15 07:15:39;;;;;;;4.10;2.07;;;10.20;99.90;;;;;;5070064;28;20541;-79
2022/11/15 07:18:04;;;;;;;2.50;2.10;;;10.30;99.90;;;;;;5053768;28;20177;-79
2022/11/15 07:20:30;;;;;;;2.37;2.17;;;10.30;99.90;;;;;;5053219;28;20185;-80
2022/11/15 07:23:03;;;;;;;3.67;1.87;;;10.30;99.90;;;;;;5053166;28;20215;-79
2022/11/15 07:25:29;;;;;;;2.42;2.22;;;10.30;99.90;;;;;;5053154;28;20634;-80
2022/11/15 07:27:59;;;;;;;2.70;1.70;;;10.40;99.90;;;;;;5053262;28;20178;-80
2022/11/15 07:30:26;;;;;;;2.45;1.88;;;10.40;99.90;;;;;;5069929;28;20458;-79
2022/11/15 07:32:59;;;;;;;3.03;1.60;;;10.40;99.90;;;;;;5069316;28;20204;-79
2022/11/15 07:35:25;;;;;;;4.05;2.30;;;10.40;99.90;;;;;;5053464;28;20252;-79
2022/11/15 07:38:02;;;;;;;3.80;2.10;;;10.50;99.90;;;;;;5053032;28;20193;-79
2022/11/15 07:40:30;;;;;;;3.00;2.00;;;10.50;99.90;;;;;;5069642;28;20188;-81
2022/11/15 07:43:00;;;;;;;2.10;1.90;;;10.50;99.90;;;;;;5072351;28;20185;-80
2022/11/15 07:45:26;;;;;;;2.85;1.80;;;10.50;99.90;;;;;;5072756;28;20250;-80
2022/11/15 07:47:52;;;;;;;2.80;2.00;;;10.50;99.90;;;;;;5053914;28;20625;-80
2022/11/15 07:50:18;;;;;;;2.28;2.08;;;10.50;99.90;;;;;;5072090;28;20231;-80
2022/11/15 07:52:45;;;;;;;3.78;1.92;;;10.50;99.90;;;;;;5055819;28;20193;-81
2022/11/15 07:55:11;;;;;;;5.65;2.20;;;10.40;99.90;;;;;;5067933;28;20183;-81
2022/11/15 07:57:37;;;;;;;2.10;2.00;;;10.40;99.90;;;;;;5066408;28;20275;-81
2022/11/15 08:00:05;;;;;;;2.30;2.10;;;10.40;99.90;;;;;;5068229;28;20235;-81
2022/11/15 08:02:32;;;;;;;2.38;2.20;;;10.50;99.90;;;;;;5064953;28;20426;-81
2022/11/15 08:04:58;;;;;;;2.30;1.90;;;10.50;99.90;;;;;;5066050;28;20592;-82
2022/11/15 08:07:24;;;;;;;2.63;2.00;;;10.40;99.90;;;;;;5054908;28;20271;-82
2022/11/15 08:09:50;;;;;;;5.03;2.40;;;10.40;99.90;;;;;;5071951;28;20370;-82
2022/11/15 08:12:15;;;;;;;3.00;2.50;;;10.40;99.90;;;;;;5055954;28;20184;-81
2022/11/15 08:14:41;;;;;;;2.30;2.10;;;10.50;99.90;;;;;;5038829;28;20181;-81
2022/11/15 08:17:06;;;;;;;3.73;2.20;;;10.50;99.90;;;;;;5051920;28;20188;-81
2022/11/15 08:19:32;;;;;;;3.43;2.10;;;10.40;99.90;;;;;;5050020;28;20177;-82
2022/11/15 08:21:58;;;;;;;2.50;1.93;;;10.50;99.90;;;;;;5049072;28;20181;-82
2022/11/15 08:24:25;;;;;;;3.17;1.83;;;10.50;99.90;;;;;;5051462;28;20196;-82
2022/11/15 08:26:50;;;;;;;1.70;1.60;;;10.50;99.90;;;;;;5034417;28;20192;-82
2022/11/15 08:29:16;;;;;;;3.17;1.90;;;10.60;99.90;;;;;;5049987;28;20217;-81
2022/11/15 08:31:42;;;;;;;2.00;1.63;;;10.60;99.90;;;;;;5035888;28;20318;-81
2022/11/15 08:34:08;;;;;;;2.97;1.37;;;10.60;99.90;;;;;;5055826;28;20184;-81
2022/11/15 08:36:33;;;;;;;3.10;1.73;;;10.70;99.90;;;;;;5055587;28;20204;-82
2022/11/15 08:38:59;;;;;;;2.00;1.70;;;10.80;99.90;;;;;;5039240;28;20204;-81
2022/11/15 08:41:37;;;;;;;4.13;2.20;;;10.80;99.90;;;;;;5055752;28;20173;-81
2022/11/15 08:44:02;;;;;;;4.90;2.25;;;10.90;99.90;;;;;;5072150;28;20252;-81
2022/11/15 08:46:28;;;;;;;3.93;1.67;;;10.90;99.90;;;;;;5072092;28;20267;-82
2022/11/15 08:48:54;;;;;;;4.87;1.63;;;10.90;99.90;;;;;;5071778;28;20212;-81
2022/11/15 08:51:19;;;;;;;1.73;1.57;;;11.00;99.90;;;;;;5056495;28;20184;-81
2022/11/15 08:53:45;;;;;;;2.67;2.07;;;11.10;99.90;;;;;;5075572;28;20181;-81
2022/11/15 08:56:13;;;;;;;2.30;1.63;;;11.20;99.90;;;;;;5042962;28;20185;-81
2022/11/15 08:58:38;;;;;;;3.77;1.70;;;11.20;99.90;;;;;;5075720;28;20177;-81
2022/11/15 09:01:04;;;;;;;2.63;1.70;;;11.30;99.90;;;;;;5058759;28;20427;-81
2022/11/15 09:03:30;;;;;;;3.43;2.10;;;11.30;99.90;;;;;;5075818;28;20600;-81
2022/11/15 09:06:00;;;;;;;1.63;1.53;;;11.30;99.90;;;;;;5076547;28;20411;-81
2022/11/15 09:08:30;;;;;;;2.60;1.60;;;11.40;99.90;;;;;;5058623;28;20486;-81
2022/11/15 09:10:56;;;;;;;2.20;1.40;;;11.50;99.90;;;;;;5075671;28;20789;-81
2022/11/15 09:13:22;;;;;;;3.33;1.67;;;11.60;99.90;;;;;;5056543;28;20439;-81
2022/11/15 09:15:48;;;;;;;6.93;1.90;;;11.70;99.90;;;;;;5075416;28;20177;-81
2022/11/15 09:18:14;;;;;;;5.30;1.23;;;11.80;99.90;;;;;;5075735;28;20780;-81
2022/11/15 09:20:39;;;;;;;2.10;1.40;;;11.90;99.90;;;;;;5075313;28;20303;-81
2022/11/15 09:23:06;;;;;;;2.83;1.40;;;11.90;99.90;;;;;;5059014;28;20974;-81
2022/11/15 09:25:31;;;;;;;3.43;1.80;;;11.90;99.90;;;;;;5075680;28;20192;-81
2022/11/15 09:27:57;;;;;;;4.50;1.60;;;12.00;99.90;;;;;;5075049;28;20887;-82
2022/11/15 09:30:24;;;;;;;1.50;1.10;;;12.20;99.90;;;;;;5075144;28;20248;-81
2022/11/15 09:32:50;;;;;;;2.63;1.20;;;12.30;99.90;;;;;;5058370;28;20758;-81
2022/11/15 09:35:16;;;;;;;3.17;1.77;;;12.40;99.90;;;;;;5058715;28;20444;-81
2022/11/15 09:37:41;;;;;;;2.80;1.50;;;12.40;99.90;;;;;;5074984;28;20465;-82
2022/11/15 09:40:11;;;;;;;3.00;1.77;;;12.50;99.90;;;;;;5076496;28;20223;-81
2022/11/15 09:42:46;;;;;;;3.00;1.53;;;12.60;99.90;;;;;;5074727;28;20173;-81
2022/11/15 09:45:55;;;;;;;1.57;1.47;;;12.70;99.90;;;;;;5074973;28;20919;-81
2022/11/15 09:48:36;;;;;;;1.53;1.27;;;12.90;99.90;;;;;;5076842;28;20485;-81
2022/11/15 09:51:04;;;;;;;3.63;1.40;;;13.20;99.90;;;;;;5075253;28;20439;-81
2022/11/15 09:53:48;;;;;;;1.53;1.20;;;13.20;99.90;;;;;;5058188;28;20430;-81
2022/11/15 09:56:19;;;;;;;2.17;1.20;;;13.30;99.90;;;;;;5074768;28;20423;-82
2022/11/15 09:59:03;;;;;;;1.97;1.00;;;13.20;99.90;;;;;;5074683;28;20867;-81
2022/11/15 10:01:42;;;;;;;1.80;1.07;;;13.50;99.90;;;;;;5076010;28;20525;-82
2022/11/15 10:04:08;;;;;;;2.90;1.07;;;13.70;99.90;;;;;;5075970;28;20395;-81
2022/11/15 10:06:40;;;;;;;2.17;0.90;;;13.80;99.90;;;;;;5058089;28;20824;-81
2022/11/15 10:09:29;;;;;;;4.30;1.70;;;13.80;99.90;;;;;;5075761;28;20478;-81
2022/11/15 10:11:54;;;;;;;4.63;1.00;;;13.90;99.90;;;;;;5074149;28;20453;-81
2022/11/15 10:14:24;;;;;;;2.70;0.70;;;14.10;99.90;;;;;;5057695;28;20789;-81
2022/11/15 10:17:08;;;;;;;3.50;0.87;;;14.00;99.90;;;;;;5075497;28;20591;-82
2022/11/15 10:19:58;;;;;;;2.37;1.13;;;14.30;99.90;;;;;;5074349;28;20462;-82
2022/11/15 10:22:29;;;;;;;2.90;0.80;;;14.50;99.90;;;;;;5074346;28;20419;-81
2022/11/15 10:25:28;;;;;;;1.53;0.80;;;14.70;99.90;;;;;;5074016;28;20431;-82
2022/11/15 10:27:54;;;;;;;3.30;0.90;;;15.00;99.90;;;;;;5066744;28;20423;-82
2022/11/15 10:30:20;;;;;;;1.33;0.90;;;15.10;99.90;;;;;;5067710;28;20467;-83
2022/11/15 10:32:47;;;;;;;2.63;1.47;;;15.00;99.90;;;;;;5050834;28;20181;-84
2022/11/15 10:35:22;;;;;;;1.87;0.90;;;15.20;99.90;;;;;;5069157;28;20423;-83
2022/11/15 10:37:48;;;;;;;1.20;0.83;;;15.40;99.90;;;;;;5067300;28;20418;-83
2022/11/15 10:40:20;;;;;;;8.43;0.93;;;15.50;99.90;;;;;;5069223;28;20402;-82
2022/11/15 10:42:47;;;;;;;0.80;0.70;;;15.60;99.90;;;;;;5071720;28;20527;-81
2022/11/15 10:45:31;;;;;;;1.80;0.83;;;15.40;99.90;;;;;;5057082;28;20514;-81
2022/11/15 10:48:17;;;;;;;1.73;0.87;;;15.60;99.90;;;;;;5071345;28;20530;-82
2022/11/15 10:50:45;;;;;;;1.77;0.80;;;15.60;99.90;;;;;;5063034;28;20531;-81
2022/11/15 10:53:40;;;;;;;3.83;1.07;;;15.70;99.90;;;;;;5056893;28;20787;-81
2022/11/15 10:56:11;;;;;;;3.13;0.93;;;15.60;99.90;;;;;;5074618;28;20391;-81
2022/11/15 10:58:55;;;;;;;5.23;0.90;;;15.70;99.90;;;;;;5073613;28;20412;-82
2022/11/15 11:01:23;;;;;;;1.93;0.70;;;16.10;99.90;;;;;;5074991;28;20481;-81
2022/11/15 11:04:06;;;;;;;3.00;0.80;;;16.10;99.90;;;;;;5073931;28;20814;-81
2022/11/15 11:06:53;;;;;;;1.63;0.60;;;16.50;99.90;;;;;;5074049;28;20464;-83
2022/11/15 11:09:33;;;;;;;1.10;0.70;;;16.80;99.90;;;;;;5072663;28;20490;-81
2022/11/15 11:12:00;;;;;;;3.53;0.83;;;16.70;99.90;;;;;;5073151;28;20418;-82
2022/11/15 11:14:30;;;;;;;3.80;0.90;;;17.10;99.90;;;;;;5072629;28;20472;-82
2022/11/15 11:17:11;;;;;;;2.23;0.80;;;17.30;99.90;;;;;;5074451;28;20491;-82
2022/11/15 11:19:46;;;;;;;6.03;1.43;;;17.00;99.90;;;;;;5074726;28;20437;-81
2022/11/15 11:22:28;;;;;;;1.53;0.80;;;17.00;99.90;;;;;;5074394;28;20400;-81
2022/11/15 11:25:00;;;;;;;1.57;0.90;;;17.50;99.90;;;;;;5072980;28;20411;-82
2022/11/15 11:28:13;;;;;;;1.80;0.80;;;18.10;99.90;;;;;;5074116;28;20415;-81
2022/11/15 11:30:57;;;;;;;1.93;0.73;;;18.50;99.90;;;;;;5068908;28;20887;-83
2022/11/15 11:33:41;;;;;;;5.27;0.90;;;18.50;99.90;;;;;;5074480;28;20400;-82
2022/11/15 11:36:35;;;;;;;2.30;0.70;;;18.60;99.90;;;;;;5073286;28;20474;-82
2022/11/15 11:39:19;;;;;;;3.13;0.87;;;18.80;99.90;;;;;;5072403;28;20457;-81
2022/11/15 11:42:04;;;;;;;2.00;0.90;;;19.00;99.90;;;;;;5072700;28;20915;-82
2022/11/15 11:44:54;;;;;;;1.40;0.70;;;19.00;99.90;;;;;;5074183;28;20502;-81
2022/11/15 11:47:28;;;;;;;5.47;1.20;;;18.10;99.90;;;;;;5074244;28;20506;-81
2022/11/15 11:50:01;;;;;;;3.20;1.27;;;17.10;99.90;;;;;;5074171;28;20432;-82
2022/11/15 11:52:37;;;;;;;2.97;1.27;;;16.90;99.90;;;;;;5073140;28;20407;-81
2022/11/15 11:55:33;;;;;;;4.47;1.13;;;16.80;99.90;;;;;;5072451;28;20397;-82
2022/11/15 11:58:06;;;;;;;3.57;0.90;;;;;;;;;;5073684;28;20390;-81
2022/11/15 12:00:35;;;;;;;2.93;0.70;;;;;;;;;;5072960;28;20540;-81
2022/11/15 12:03:19;;;;;;;2.10;0.90;;;;;;;;;;5072468;28;20494;-81
2022/11/15 12:06:07;;;;;;;4.60;1.10;;;;;;;;;;5072689;28;20407;-84
2022/11/15 12:08:54;;;;;;;1.83;0.60;;;;;;;;;;5072475;28;20508;-83
2022/11/15 12:11:26;;;;;;;1.97;0.90;;;;;;;;;;5074130;28;20399;-82
2022/11/15 12:13:56;;;;;;;2.80;0.90;;;;;;;;;;5073718;28;20768;-82
2022/11/15 12:16:24;;;;;;;2.57;1.03;;;;;;;;;;5073866;28;20731;-82
2022/11/15 12:18:51;;;;;;;1.10;0.87;;;;;;;;;;5073761;28;20486;-82
2022/11/15 12:21:22;;;;;;;5.53;1.17;;;;;;;;;;5072819;28;20758;-81
2022/11/15 12:23:50;;;;;;;2.30;0.90;;;;;;;;;;5074346;28;20404;-83
2022/11/15 12:26:28;;;;;;;3.00;1.10;;;;;;;;;;5075501;28;20806;-82
2022/11/15 12:29:20;;;;;;;3.07;0.90;;;;;;;;;;5076375;28;20458;-82
2022/11/15 12:31:49;;;;;;;3.63;1.00;;;;;;;;;;5074499;28;20770;-84
2022/11/15 12:34:22;;;;;;;3.70;0.90;;;;;;;;;;5076909;28;20764;-82
2022/11/15 12:36:48;;;;;;;2.37;0.90;;;;;;;;;;5076245;28;20755;-83
2022/11/15 12:39:15;;;;;;;6.60;1.50;;;;;;;;;;5076094;28;20480;-82
2022/11/15 12:41:42;;;;;;;2.90;0.90;;;;;;;;;;5076908;28;20414;-82
2022/11/15 12:44:12;;;;;;;6.03;1.43;;;;;;;;;;5076280;28;20928;-82
2022/11/15 12:46:41;;;;;;;4.63;1.30;;;;;;;;;;5076404;28;20392;-82
2022/11/15 12:49:26;;;;;;;1.50;1.00;;;;;;;;;;5076031;28;20573;-81
2022/11/15 12:51:52;;;;;;;2.63;1.20;;;;;;;;;;5075738;28;20419;-82
2022/11/15 12:54:24;;;;;;;2.20;1.10;;;;;;;;;;5077340;28;20828;-82
2022/11/15 12:57:08;;;;;;;1.67;1.03;;;;;;;;;;5077409;28;20456;-82
2022/11/15 12:59:50;;;;;;;1.40;1.00;;;;;;;;;;5076291;28;20433;-81
2022/11/15 13:02:34;;;;;;;7.00;1.30;;;;;;;;;;5076298;28;20514;-81
2022/11/15 13:05:18;;;;;;;3.10;1.20;;;;;;;;;;5077159;28;20407;-82
2022/11/15 13:07:44;;;;;;;2.63;1.07;;;;;;;;;;5075873;28;20446;-82
2022/11/15 13:10:10;;;;;;;4.33;1.23;;;;;;;;;;5075377;28;20493;-83
2022/11/15 13:12:39;;;;;;;5.40;1.23;;;;;;;;;;5077523;28;20752;-81
2022/11/15 13:15:17;;;;;;;5.73;1.30;;;;;;;;;;5075588;28;20783;-81
2022/11/15 13:17:43;;;;;;;3.20;1.00;;;;;;;;;;5076091;28;20442;-81
2022/11/15 13:20:10;;;;;;;2.17;1.10;;;;;;;;;;5075192;28;21250;-82
2022/11/15 13:22:54;;;;;;;1.60;1.20;;;;;;;;;;5076021;28;20415;-82
2022/11/15 13:25:42;;;;;;;1.53;1.20;;;;;;;;;;5076258;28;20395;-81
2022/11/15 13:28:19;;;;;;;4.10;1.20;;;;;;;;;;5076870;28;20955;-82
2022/11/15 13:30:48;;;;;;;1.63;1.23;;;;;;;;;;5075215;28;20454;-82
2022/11/15 13:33:23;;;;;;;1.40;1.10;;;;;;;;;;5076398;28;20830;-82
2022/11/15 13:35:51;;;;;;;6.07;1.40;;;;;;;;;;5076721;28;20399;-81